Time;durP1;ratioP1;P1;durP2;ratioP2;P2;SDS_P1;SDS_P2;PMS_P1;PMS_P2;Temp;Humidity;BMP_temperature;BMP_pressure;BME280_temperature;BME280_humidity;BME280_pressure;Samples;Min_cycle;Max_cycle;Signal;HPM_P1;HPM_P2
2022/04/02 00:01:30;;;;;;;4.93;2.07;;;;;;;;;;5089055;28;20352;-66
2022/04/02 00:03:56;;;;;;;4.30;2.30;;;;;;;;;;5104515;28;20355;-66
2022/04/02 00:06:22;;;;;;;4.93;2.57;;;;;;;;;;5070222;28;20325;-66
2022/04/02 00:08:48;;;;;;;4.80;2.37;;;;;;;;;;5088697;28;20286;-66
2022/04/02 00:11:14;;;;;;;8.37;2.67;;;;;;;;;;5089113;28;20805;-66
2022/04/02 00:13:40;;;;;;;7.30;2.07;;;;;;;;;;5088629;28;20613;-66
2022/04/02 00:16:07;;;;;;;4.93;2.50;;;;;;;;;;5088357;28;20290;-66
2022/04/02 00:18:33;;;;;;;4.57;2.43;;;;;;;;;;5088664;28;20301;-66
2022/04/02 00:20:59;;;;;;;4.60;2.40;;;;;;;;;;5088256;28;20291;-66
2022/04/02 00:23:41;;;;;;;5.87;2.40;;;;;;;;;;5088456;28;20290;-66
2022/04/02 00:26:08;;;;;;;6.63;2.43;;;;;;;;;;5091770;28;20351;-66
2022/04/02 00:28:36;;;;;;;5.83;2.43;;;;;;;;;;5092485;28;20687;-66
2022/04/02 00:31:02;;;;;;;3.90;2.40;;;;;;;;;;5091708;28;20286;-65
2022/04/02 00:33:28;;;;;;;4.57;2.50;;;;;;;;;;5107912;28;20297;-66
2022/04/02 00:35:54;;;;;;;5.73;2.40;;;;;;;;;;5112053;28;20705;-66
2022/04/02 00:38:21;;;;;;;4.60;2.60;;;;;;;;;;5089355;28;20314;-66
2022/04/02 00:40:47;;;;;;;4.17;2.47;;;;;;;;;;5092016;28;20282;-66
2022/04/02 00:43:23;;;;;;;6.00;2.17;;;;;;;;;;5093269;28;20803;-66
2022/04/02 00:45:50;;;;;;;5.83;2.80;;;;;;;;;;5100328;28;20351;-66
2022/04/02 00:48:17;;;;;;;5.23;2.77;;;;;;;;;;5086537;28;20695;-66
2022/04/02 00:50:44;;;;;;;8.27;2.47;;;;;;;;;;5091420;28;20348;-66
2022/04/02 00:53:11;;;;;;;6.57;2.83;;;;;;;;;;5091647;28;20282;-66
2022/04/02 00:55:37;;;;;;;5.57;2.53;;;;;;;;;;5093544;28;20906;-66
2022/04/02 00:58:07;;;;;;;6.93;2.47;;;;;;;;;;5090605;28;20293;-66
2022/04/02 01:00:34;;;;;;;8.10;2.60;;;;;;;;;;5093357;28;20287;-66
2022/04/02 01:03:00;;;;;;;13.07;2.87;;;;;;;;;;5111457;28;20709;-66
2022/04/02 01:05:26;;;;;;;5.80;2.50;;;;;;;;;;5091412;28;20308;-67
2022/04/02 01:07:52;;;;;;;5.03;2.77;;;;;;;;;;5111668;28;20331;-66
2022/04/02 01:10:18;;;;;;;5.00;2.20;;;;;;;;;;5091644;28;20637;-66
2022/04/02 01:12:45;;;;;;;9.20;2.90;;;;;;;;;;5072516;28;20641;-66
2022/04/02 01:15:11;;;;;;;10.33;2.80;;;;;;;;;;5098178;28;20308;-66
2022/04/02 01:17:40;;;;;;;7.83;2.70;;;;;;;;;;5111332;28;20289;-66
2022/04/02 01:20:07;;;;;;;5.97;2.90;;;;;;;;;;5105588;28;20655;-66
2022/04/02 01:22:34;;;;;;;6.10;3.03;;;;;;;;;;5094807;28;20304;-66
2022/04/02 01:25:00;;;;;;;6.23;2.70;;;;;;;;;;5099641;28;20320;-65
2022/04/02 01:27:26;;;;;;;5.50;3.07;;;;;;;;;;5091146;28;20790;-65
2022/04/02 01:29:52;;;;;;;7.90;2.60;;;;;;;;;;5100463;28;20723;-66
2022/04/02 01:32:18;;;;;;;5.60;2.53;;;;;;;;;;5111239;28;20285;-66
2022/04/02 01:34:44;;;;;;;4.10;2.40;;;;;;;;;;5095729;28;20295;-66
2022/04/02 01:37:15;;;;;;;5.10;2.50;;;;;;;;;;5090834;28;20474;-66
2022/04/02 01:39:41;;;;;;;6.53;2.47;;;;;;;;;;5095261;28;20294;-66
2022/04/02 01:42:07;;;;;;;5.87;2.90;;;;;;;;;;5110795;28;20287;-67
2022/04/02 01:44:33;;;;;;;5.20;2.63;;;;;;;;;;5107325;28;20313;-66
2022/04/02 01:46:59;;;;;;;6.00;2.77;;;;;;;;;;5109120;28;20305;-66
2022/04/02 01:49:25;;;;;;;6.07;3.00;;;;;;;;;;5093590;28;20315;-66
2022/04/02 01:51:51;;;;;;;9.23;2.60;;;;;;;;;;5089928;28;20089;-66
2022/04/02 01:54:19;;;;;;;7.50;2.73;;;;;;;;;;5090022;28;20286;-66
2022/04/02 01:56:46;;;;;;;4.90;2.60;;;;;;;;;;5093122;28;20373;-66
2022/04/02 01:59:12;;;;;;;6.00;3.00;;;;;;;;;;5093894;28;20298;-66
2022/04/02 02:01:38;;;;;;;5.07;2.80;;;;;;;;;;5108102;28;20289;-66
2022/04/02 02:04:04;;;;;;;6.00;2.70;;;;;;;;;;5076952;28;20380;-66
2022/04/02 02:06:31;;;;;;;6.47;2.63;;;;;;;;;;5090403;28;20807;-66
2022/04/02 02:08:58;;;;;;;8.43;3.00;;;;;;;;;;5094903;28;20753;-66
2022/04/02 02:11:24;;;;;;;8.17;3.37;;;;;;;;;;5092608;28;20297;-66
2022/04/02 02:13:51;;;;;;;4.93;3.00;;;;;;;;;;5109439;28;20290;-66
2022/04/02 02:16:17;;;;;;;8.87;2.57;;;;;;;;;;5094861;28;20328;-66
2022/04/02 02:18:43;;;;;;;4.63;2.30;;;;;;;;;;5090322;28;20784;-66
2022/04/02 02:21:10;;;;;;;5.90;2.73;;;;;;;;;;5091430;28;20647;-66
2022/04/02 02:23:36;;;;;;;6.07;2.63;;;;;;;;;;5100454;28;20287;-66
2022/04/02 02:26:02;;;;;;;7.60;2.97;;;;;;;;;;5071818;28;20804;-66
2022/04/02 02:28:28;;;;;;;6.60;3.10;;;;;;;;;;5098200;28;20321;-66
2022/04/02 02:30:55;;;;;;;6.73;2.93;;;;;;;;;;5089997;28;20724;-66
2022/04/02 02:36:06;;;;;;;5.97;2.83;;;;;;;;;;5089237;28;20380;-66
2022/04/02 02:38:32;;;;;;;7.23;3.03;;;;;;;;;;5093845;28;20876;-66
2022/04/02 02:40:58;;;;;;;9.10;3.00;;;;;;;;;;5109957;28;20627;-66
2022/04/02 02:43:24;;;;;;;8.53;3.03;;;;;;;;;;5109132;28;20320;-66
2022/04/02 02:45:50;;;;;;;8.20;3.27;;;;;;;;;;5109144;28;20353;-67
2022/04/02 02:48:16;;;;;;;7.10;3.20;;;;;;;;;;5106104;28;20301;-66
2022/04/02 02:50:43;;;;;;;7.10;3.27;;;;;;;;;;5102897;28;20297;-66
2022/04/02 02:53:10;;;;;;;6.17;2.67;;;;;;;;;;5109219;28;20278;-66
2022/04/02 02:55:36;;;;;;;6.80;3.40;;;;;;;;;;5107149;28;20296;-65
2022/04/02 02:58:02;;;;;;;7.87;2.97;;;;;;;;;;5109725;28;20356;-66
2022/04/02 03:00:28;;;;;;;5.50;3.10;;;;;;;;;;5103330;28;20376;-66
2022/04/02 03:02:55;;;;;;;9.23;3.53;;;;;;;;;;5097855;28;20312;-66
2022/04/02 03:05:21;;;;;;;7.57;3.30;;;;;;;;;;5109844;28;20296;-66
2022/04/02 03:07:51;;;;;;;7.37;2.80;;;;;;;;;;5100603;28;21036;-66
2022/04/02 03:10:24;;;;;;;7.93;3.50;;;;;;;;;;5089155;28;20309;-66
2022/04/02 03:12:51;;;;;;;9.77;3.30;;;;;;;;;;5088844;28;20293;-66
2022/04/02 03:15:18;;;;;;;6.73;3.10;;;;;;;;;;5088298;28;20047;-66
2022/04/02 03:17:44;;;;;;;5.60;3.00;;;;;;;;;;5089325;28;20298;-66
2022/04/02 03:20:11;;;;;;;5.50;2.93;;;;;;;;;;5089102;28;20294;-66
2022/04/02 03:22:40;;;;;;;7.50;3.60;;;;;;;;;;5071092;28;20412;-66
2022/04/02 03:25:09;;;;;;;7.80;3.93;;;;;;;;;;5088504;28;20325;-66
2022/04/02 03:27:36;;;;;;;8.70;3.43;;;;;;;;;;5088639;28;20302;-66
2022/04/02 03:30:04;;;;;;;7.63;3.40;;;;;;;;;;5070226;28;20336;-66
2022/04/02 03:32:30;;;;;;;9.13;3.63;;;;;;;;;;5070505;28;20294;-66
2022/04/02 03:34:57;;;;;;;6.43;3.17;;;;;;;;;;5106087;28;20301;-66
2022/04/02 03:37:24;;;;;;;9.90;4.07;;;;;;;;;;5107965;28;20285;-66
2022/04/02 03:39:51;;;;;;;8.83;3.47;;;;;;;;;;5091284;28;20388;-66
2022/04/02 03:42:17;;;;;;;5.63;3.20;;;;;;;;;;5089200;28;20286;-66
2022/04/02 03:44:43;;;;;;;7.53;3.47;;;;;;;;;;5087888;28;20298;-66
2022/04/02 03:47:09;;;;;;;6.67;3.17;;;;;;;;;;5088968;28;20314;-66
2022/04/02 03:49:35;;;;;;;8.67;3.80;;;;;;;;;;5070460;28;20048;-66
2022/04/02 03:52:01;;;;;;;12.63;3.70;;;;;;;;;;5088424;28;20286;-66
2022/04/02 03:54:27;;;;;;;8.87;3.47;;;;;;;;;;5088020;28;20290;-66
2022/04/02 03:56:54;;;;;;;6.67;3.20;;;;;;;;;;5088785;28;20040;-66
2022/04/02 03:59:20;;;;;;;7.57;3.23;;;;;;;;;;5102676;28;20293;-66
2022/04/02 04:01:46;;;;;;;7.87;4.10;;;;;;;;;;5088981;28;20330;-66
2022/04/02 04:04:13;;;;;;;8.73;3.37;;;;;;;;;;5092616;28;20306;-66
2022/04/02 04:06:39;;;;;;;6.60;3.27;;;;;;;;;;5092400;28;20317;-66
2022/04/02 04:09:05;;;;;;;8.23;3.70;;;;;;;;;;5074066;28;20352;-66
2022/04/02 04:11:32;;;;;;;10.17;3.83;;;;;;;;;;5092649;28;20361;-66
2022/04/02 04:13:58;;;;;;;7.40;3.30;;;;;;;;;;5091990;28;20305;-66
2022/04/02 04:16:24;;;;;;;13.23;4.07;;;;;;;;;;5099464;28;20297;-66
2022/04/02 04:18:50;;;;;;;7.03;3.63;;;;;;;;;;5111782;28;20115;-66
2022/04/02 04:21:16;;;;;;;8.00;3.90;;;;;;;;;;5091956;28;21163;-66
2022/04/02 04:23:42;;;;;;;10.03;4.07;;;;;;;;;;5096463;28;20297;-66
2022/04/02 04:26:09;;;;;;;10.10;4.27;;;;;;;;;;5112485;28;20297;-66
2022/04/02 04:28:35;;;;;;;5.60;3.37;;;;;;;;;;5108467;28;20978;-66
2022/04/02 04:31:01;;;;;;;9.17;3.63;;;;;;;;;;5092069;28;20282;-66
2022/04/02 04:33:27;;;;;;;7.67;3.97;;;;;;;;;;5094324;28;20300;-66
2022/04/02 04:35:53;;;;;;;9.90;3.97;;;;;;;;;;5102342;28;20391;-66
2022/04/02 04:38:19;;;;;;;8.73;4.23;;;;;;;;;;5091943;28;20278;-66
2022/04/02 04:40:45;;;;;;;10.83;3.70;;;;;;;;;;5098305;28;20031;-66
2022/04/02 04:43:11;;;;;;;9.07;3.43;;;;;;;;;;5111280;28;20039;-66
2022/04/02 04:45:37;;;;;;;8.67;3.37;;;;;;;;;;5110604;28;20548;-66
2022/04/02 04:48:03;;;;;;;11.03;3.73;;;;;;;;;;5094537;28;20281;-66
2022/04/02 04:50:29;;;;;;;8.70;4.10;;;;;;;;;;5111511;28;20325;-66
2022/04/02 04:52:55;;;;;;;9.73;3.87;;;-4.20;99.90;;;;;;5111234;28;20300;-66
2022/04/02 04:55:21;;;;;;;5.97;3.27;;;-4.40;99.90;;;;;;5111560;28;20273;-67
2022/04/02 04:57:50;;;;;;;11.43;3.60;;;-4.50;99.90;;;;;;5111486;28;20043;-66
2022/04/02 05:00:16;;;;;;;7.17;3.40;;;;;;;;;;5103559;28;20297;-66
2022/04/02 05:02:44;;;;;;;6.83;3.17;;;;;;;;;;5110069;28;20297;-66
2022/04/02 05:05:14;;;;;;;9.33;3.53;;;;;;;;;;5091535;28;20278;-66
2022/04/02 05:07:43;;;;;;;12.47;3.57;;;;;;;;;;5091769;28;20786;-66
2022/04/02 05:10:10;;;;;;;9.23;3.90;;;;;;;;;;5092178;28;20378;-66
2022/04/02 05:12:36;;;;;;;10.13;3.73;;;;;;;;;;5112322;28;20282;-66
2022/04/02 05:15:03;;;;;;;10.70;4.00;;;;;;;;;;5104826;28;20324;-65
2022/04/02 05:17:29;;;;;;;6.53;3.30;;;;;;;;;;5091437;28;20286;-66
2022/04/02 05:19:55;;;;;;;11.37;3.47;;;;;;;;;;5095623;28;20302;-66
2022/04/02 05:22:21;;;;;;;8.30;3.50;;;-4.50;99.90;;;;;;5096062;28;20430;-66
2022/04/02 05:24:46;;;;;;;6.60;3.23;;;-4.50;99.90;;;;;;5091110;28;20373;-66
2022/04/02 05:27:12;;;;;;;8.17;3.50;;;-4.50;99.90;;;;;;5099794;28;20047;-66
2022/04/02 05:29:37;;;;;;;7.90;3.47;;;-4.50;99.90;;;;;;5103360;28;20035;-65
2022/04/02 05:32:03;;;;;;;9.50;3.90;;;-4.50;99.90;;;;;;5091433;28;20052;-66
2022/04/02 05:34:30;;;;;;;6.30;3.07;;;-4.40;99.90;;;;;;5108551;28;20054;-66
2022/04/02 05:36:56;;;;;;;8.17;3.37;;;-4.40;99.90;;;;;;5097508;28;20296;-66
2022/04/02 05:39:22;;;;;;;10.30;3.10;;;-4.40;99.90;;;;;;5104124;28;20301;-66
2022/04/02 05:41:49;;;;;;;7.00;2.97;;;-4.30;99.90;;;;;;5084146;28;20301;-66
2022/04/02 05:44:14;;;;;;;13.70;3.30;;;-4.30;99.90;;;;;;5090683;28;20300;-66
2022/04/02 05:46:41;;;;;;;10.27;3.10;;;-4.20;99.90;;;;;;5095515;28;20742;-66
2022/04/02 05:49:06;;;;;;;8.13;3.07;;;-4.10;99.90;;;;;;5110785;28;20116;-66
2022/04/02 05:51:32;;;;;;;11.63;3.13;;;-4.00;99.90;;;;;;5105118;28;20305;-66
2022/04/02 05:53:59;;;;;;;10.63;3.63;;;-3.90;99.90;;;;;;5090401;28;20051;-66
2022/04/02 05:56:26;;;;;;;6.60;3.10;;;-3.80;99.90;;;;;;5089573;28;20096;-66
2022/04/02 05:58:53;;;;;;;8.23;3.23;;;-3.60;99.90;;;;;;5109263;28;20350;-66
2022/04/02 06:01:18;;;;;;;7.53;3.60;;;-3.50;99.90;;;;;;5110927;28;20774;-66
2022/04/02 06:03:44;;;;;;;5.80;3.07;;;-3.20;99.90;;;;;;5109625;28;20362;-67
2022/04/02 06:06:10;;;;;;;13.63;3.23;;;-3.10;99.90;;;;;;5102705;28;20043;-67
2022/04/02 06:08:36;;;;;;;6.13;2.83;;;-2.90;99.90;;;;;;5090852;28;20644;-66
2022/04/02 06:11:02;;;;;;;8.40;3.33;;;-2.80;99.90;;;;;;5089522;28;20050;-67
2022/04/02 06:13:27;;;;;;;6.33;3.60;;;-2.60;99.90;;;;;;5089286;28;20036;-67
2022/04/02 06:15:54;;;;;;;9.23;3.70;;;;;;;;;;5110003;28;20130;-67
2022/04/02 06:18:20;;;;;;;11.27;3.57;;;-2.40;99.90;;;;;;5082505;28;20115;-66
2022/04/02 06:20:48;;;;;;;6.07;3.33;;;-2.20;99.90;;;;;;5090094;28;20270;-66
2022/04/02 06:23:14;;;;;;;9.97;3.60;;;-2.10;99.90;;;;;;5094694;28;20870;-66
2022/04/02 06:25:40;;;;;;;10.70;3.70;;;-2.00;99.90;;;;;;5092998;28;21036;-66
2022/04/02 06:28:06;;;;;;;6.97;3.53;;;-1.90;99.90;;;;;;5091963;28;20274;-66
2022/04/02 06:30:32;;;;;;;6.20;3.10;;;-1.80;99.90;;;;;;5097171;28;20047;-66
2022/04/02 06:33:00;;;;;;;8.50;3.27;;;-1.70;99.90;;;;;;5098070;28;20678;-67
2022/04/02 06:35:27;;;;;;;10.17;3.27;;;-1.60;99.90;;;;;;5094579;28;20842;-66
2022/04/02 06:37:54;;;;;;;8.30;3.73;;;;;;;;;;5097728;28;20811;-66
2022/04/02 06:40:21;;;;;;;11.97;3.60;;;;;;;;;;5098812;28;20297;-66
2022/04/02 06:42:47;;;;;;;10.93;3.83;;;;;;;;;;5094650;28;20305;-66
2022/04/02 06:45:13;;;;;;;9.93;3.60;;;;;;;;;;5097060;28;20343;-66
2022/04/02 06:47:40;;;;;;;7.27;3.60;;;;;;;;;;5090655;28;21076;-66
2022/04/02 06:50:08;;;;;;;8.97;3.80;;;-1.50;99.90;;;;;;5088897;28;20283;-67
2022/04/02 06:52:34;;;;;;;11.50;3.60;;;-0.90;99.90;;;;;;5089462;28;20294;-66
2022/04/02 06:55:00;;;;;;;8.03;3.70;;;-0.90;99.90;;;;;;5088918;28;20616;-66
2022/04/02 06:57:27;;;;;;;4.93;3.20;;;-0.80;99.90;;;;;;5102081;28;20148;-66
2022/04/02 06:59:53;;;;;;;7.20;3.80;;;-0.70;99.90;;;;;;5104830;28;20289;-66
2022/04/02 07:02:20;;;;;;;11.07;3.73;;;-0.60;99.90;;;;;;5091089;28;20383;-66
2022/04/02 07:04:46;;;;;;;8.77;3.67;;;-0.50;99.90;;;;;;5092580;28;20047;-66
2022/04/02 07:07:12;;;;;;;8.13;3.90;;;-0.40;99.90;;;;;;5088721;28;20367;-66
2022/04/02 07:09:38;;;;;;;9.13;4.60;;;-0.30;99.90;;;;;;5088864;28;20274;-66
2022/04/02 07:12:05;;;;;;;11.33;5.20;;;-0.10;99.90;;;;;;5071027;28;20298;-66
2022/04/02 07:14:31;;;;;;;9.80;3.23;;;;;;;;;;5076171;28;20660;-66
2022/04/02 07:16:57;;;;;;;11.20;4.13;;;;;;;;;;5093722;28;20301;-66
2022/04/02 07:19:25;;;;;;;12.67;4.30;;;0.00;99.90;;;;;;5088829;28;20292;-66
2022/04/02 07:21:54;;;;;;;8.23;4.10;;;;;;;;;;5091292;28;20055;-66
2022/04/02 07:24:21;;;;;;;7.83;3.80;;;;;;;;;;5095834;28;20611;-66
2022/04/02 07:26:48;;;;;;;10.43;3.53;;;;;;;;;;5108372;28;20309;-67
2022/04/02 07:29:14;;;;;;;8.43;3.53;;;;;;;;;;5109071;28;20568;-67
2022/04/02 07:31:41;;;;;;;6.40;3.97;;;;;;;;;;5103760;28;20365;-66
2022/04/02 07:34:07;;;;;;;7.67;3.40;;;;;;;;;;5108543;28;20280;-66
2022/04/02 07:36:41;;;;;;;11.27;4.43;;;;;;;;;;5099285;28;20298;-66
2022/04/02 07:39:09;;;;;;;;;;;;;;;;;;5089692;28;20336;-66
2022/04/02 07:41:43;;;;;;;9.60;4.00;;;;;;;;;;5096456;28;19963;-67
2022/04/02 07:44:14;;;;;;;5.63;3.07;;;;;;;;;;5096284;28;20346;-67
2022/04/02 07:46:42;;;;;;;8.87;3.10;;;;;;;;;;5096243;28;20314;-67
2022/04/02 07:49:10;;;;;;;6.90;3.10;;;;;;;;;;5078728;28;20286;-67
2022/04/02 07:51:38;;;;;;;5.10;2.97;;;;;;;;;;5078821;28;20044;-67
2022/04/02 07:54:06;;;;;;;6.40;3.17;;;0.30;99.90;;;;;;5080349;28;20071;-67
2022/04/02 07:56:37;;;;;;;7.13;3.20;;;2.30;99.90;;;;;;5088346;28;20036;-67
2022/04/02 07:59:37;;;;;;;10.30;3.97;;;2.40;99.90;;;;;;5095010;28;20050;-67
2022/04/02 08:02:03;;;;;;;6.13;2.93;;;2.60;99.90;;;;;;5097299;28;20638;-67
2022/04/02 08:04:29;;;;;;;5.07;2.60;;;;;;;;;;5097991;28;20056;-67
2022/04/02 08:06:55;;;;;;;7.33;3.13;;;;;;;;;;5101526;28;20040;-67
2022/04/02 08:09:22;;;;;;;9.67;2.97;;;;;;;;;;5104561;28;20108;-67
2022/04/02 08:11:48;;;;;;;5.10;3.30;;;;;;;;;;5102811;28;20459;-67
2022/04/02 08:14:15;;;;;;;5.03;2.77;;;;;;;;;;5101192;28;20138;-67
2022/04/02 08:16:43;;;;;;;10.23;2.73;;;;;;;;;;5092741;28;20848;-67
2022/04/02 08:19:09;;;;;;;8.80;3.17;;;;;;;;;;5058131;28;20424;-67
2022/04/02 08:21:35;;;;;;;7.53;3.27;;;;;;;;;;5089895;28;20044;-67
2022/04/02 08:24:03;;;;;;;6.47;3.10;;;;;;;;;;5092533;28;20044;-67
2022/04/02 08:26:28;;;;;;;6.70;2.60;;;;;;;;;;5076105;28;20141;-66
2022/04/02 08:29:04;;;;;;;6.93;3.07;;;;;;;;;;5098011;28;20094;-66
2022/04/02 08:31:44;;;;;;;9.13;3.27;;;;;;;;;;5096862;28;20051;-66
2022/04/02 08:34:13;;;;;;;5.07;2.30;;;;;;;;;;5100041;28;20093;-66
2022/04/02 08:36:42;;;;;;;10.33;2.90;;;;;;;;;;5101800;28;20115;-66
2022/04/02 08:39:36;;;;;;;5.80;1.83;;;;;;;;;;5095817;28;20044;-66
2022/04/02 08:42:02;;;;;;;4.38;1.95;;;;;;;;;;5098152;28;20044;-65
2022/04/02 08:44:31;;;;;;;4.73;2.03;;;;;;;;;;5092419;28;20058;-65
2022/04/02 08:47:03;;;;;;;6.63;2.13;;;;;;;;;;5105359;28;20047;-65
2022/04/02 08:49:38;;;;;;;6.67;2.77;;;;;;;;;;5099812;28;20105;-65
2022/04/02 08:52:12;;;;;;;3.40;1.87;;;;;;;;;;5100478;28;20040;-65
2022/04/02 08:54:40;;;;;;;5.73;1.93;;;;;;;;;;5093312;28;20050;-65
2022/04/02 08:57:21;;;;;;;5.13;2.63;;;;;;;;;;5111787;28;20043;-65
2022/04/02 08:59:55;;;;;;;4.17;1.90;;;;;;;;;;5110509;28;20055;-65
2022/04/02 09:02:30;;;;;;;3.93;1.97;;;;;;;;;;5093002;28;20384;-65
2022/04/02 09:05:12;;;;;;;5.17;2.10;;;;;;;;;;5093479;28;20089;-65
2022/04/02 09:07:57;;;;;;;3.80;1.83;;;;;;;;;;5099835;28;20044;-65
2022/04/02 09:10:37;;;;;;;17.47;2.93;;;;;;;;;;5101098;28;20449;-65
2022/04/02 09:13:09;;;;;;;6.20;2.27;;;;;;;;;;5098583;28;20106;-65
2022/04/02 09:15:54;;;;;;;3.77;1.70;;;;;;;;;;5095285;28;20094;-65
2022/04/02 09:18:32;;;;;;;4.83;2.13;;;;;;;;;;5090964;28;20051;-66
2022/04/02 09:21:01;;;;;;;5.60;2.47;;;;;;;;;;5102716;28;20048;-65
2022/04/02 09:23:36;;;;;;;7.23;1.73;;;;;;;;;;5098431;28;20050;-66
2022/04/02 09:26:29;;;;;;;5.20;2.00;;;;;;;;;;5110219;28;20052;-66
2022/04/02 09:29:10;;;;;;;8.03;2.17;;;;;;;;;;5109379;28;20051;-66
2022/04/02 09:31:51;;;;;;;6.13;2.00;;;;;;;;;;5093690;28;20122;-66
2022/04/02 09:34:36;;;;;;;8.47;2.50;;;;;;;;;;5090930;28;20044;-66
2022/04/02 09:37:22;;;;;;;4.10;1.93;;;;;;;;;;5098420;28;20126;-67
2022/04/02 09:40:21;;;;;;;8.33;2.23;;;;;;;;;;5107214;28;20934;-67
2022/04/02 09:42:50;;;;;;;4.93;2.10;;;;;;;;;;5020785;28;20048;-67
2022/04/02 09:45:18;;;;;;;5.17;2.07;;;;;;;;;;5090381;28;20055;-67
2022/04/02 09:48:05;;;;;;;7.30;2.47;;;;;;;;;;5088851;28;20055;-67
2022/04/02 09:50:31;;;;;;;7.90;3.40;;;;;;;;;;5097089;28;20134;-67
2022/04/02 09:52:59;;;;;;;6.27;2.20;;;;;;;;;;5079297;28;20051;-67
2022/04/02 09:55:44;;;;;;;7.03;2.60;;;;;;;;;;5090442;28;20059;-67
2022/04/02 09:58:19;;;;;;;5.40;2.27;;;;;;;;;;5071823;28;20494;-67
2022/04/02 10:01:06;;;;;;;4.70;2.47;;;;;;;;;;5089890;28;20510;-67
2022/04/02 10:03:33;;;;;;;6.07;2.10;;;;;;;;;;5102444;28;20139;-67
2022/04/02 10:06:05;;;;;;;6.50;2.30;;;;;;;;;;5103026;28;20056;-67
2022/04/02 10:08:50;;;;;;;5.63;1.80;;;;;;;;;;5099781;28;20044;-67
2022/04/02 10:11:18;;;;;;;6.17;2.30;;;;;;;;;;5094344;28;20051;-67
2022/04/02 10:13:45;;;;;;;7.87;2.40;;;;;;;;;;5110668;28;20043;-67
2022/04/02 10:16:14;;;;;;;6.00;1.97;;;;;;;;;;5110655;28;20071;-66
2022/04/02 10:18:42;;;;;;;6.97;2.77;;;;;;;;;;5110431;28;20055;-66
2022/04/02 10:21:09;;;;;;;8.07;2.00;;;;;;;;;;5096567;28;20055;-67
2022/04/02 10:23:37;;;;;;;5.07;1.63;;;;;;;;;;5094470;28;20044;-66
2022/04/02 10:26:09;;;;;;;5.80;1.70;;;;;;;;;;5093629;28;20505;-66
2022/04/02 10:28:53;;;;;;;5.37;2.00;;;;;;;;;;5089711;28;20115;-66
2022/04/02 10:31:35;;;;;;;6.23;1.63;;;;;;;;;;5089535;28;20117;-66
2022/04/02 10:34:09;;;;;;;7.70;1.70;;;;;;;;;;5089867;28;20044;-66
2022/04/02 10:36:37;;;;;;;;;;;;;;;;;;5091284;28;20044;-66
2022/04/02 10:39:03;;;;;;;7.07;1.53;;;;;;;;;;5091465;28;19920;-66
2022/04/02 10:41:30;;;;;;;6.07;1.87;;;;;;;;;;5100815;28;20689;-66
2022/04/02 10:44:00;;;;;;;5.63;1.70;;;;;;;;;;5088916;28;20493;-66
2022/04/02 10:46:27;;;;;;;2.63;1.27;;;;;;;;;;5089779;28;20054;-66
2022/04/02 10:48:55;;;;;;;4.90;1.70;;;;;;;;;;5089286;28;20036;-66
2022/04/02 10:51:23;;;;;;;5.63;1.30;;;;;;;;;;5095869;28;20537;-66
2022/04/02 10:53:55;;;;;;;2.20;1.30;;;;;;;;;;5096329;28;20402;-66
2022/04/02 10:56:26;;;;;;;4.10;1.53;;;;;;;;;;5096474;28;20044;-66
2022/04/02 10:58:54;;;;;;;8.90;1.70;;;;;;;;;;5095254;28;20040;-66
2022/04/02 11:01:22;;;;;;;3.83;1.90;;;;;;;;;;5094436;28;20051;-66
2022/04/02 11:03:54;;;;;;;3.67;1.23;;;;;;;;;;5093642;28;20051;-67
2022/04/02 11:06:43;;;;;;;4.03;1.17;;;;;;;;;;5096868;28;20075;-67
2022/04/02 11:09:27;;;;;;;7.90;2.07;;;;;;;;;;5094182;28;20036;-67
2022/04/02 11:11:53;;;;;;;3.22;1.33;;;;;;;;;;5097442;28;20044;-67
2022/04/02 11:14:22;;;;;;;4.57;1.83;;;;;;;;;;5074416;28;20035;-67
2022/04/02 11:16:49;;;;;;;4.17;1.57;;;;;;;;;;5089829;28;20697;-67
2022/04/02 11:22:04;;;;;;;5.07;1.47;;;;;;;;;;5089593;28;20052;-67
2022/04/02 11:24:31;;;;;;;5.70;1.50;;;;;;;;;;5081947;28;20062;-67
2022/04/02 11:26:59;;;;;;;3.37;1.27;;;;;;;;;;5077891;28;20502;-67
2022/04/02 11:29:26;;;;;;;6.17;1.33;;;;;;;;;;5096689;28;20043;-67
2022/04/02 11:31:53;;;;;;;4.10;1.20;;;;;;;;;;5077198;28;20771;-67
2022/04/02 11:34:21;;;;;;;4.13;1.30;;;;;;;;;;5091677;28;20039;-67
2022/04/02 11:36:48;;;;;;;3.77;0.90;;;;;;;;;;5089420;28;20044;-67
2022/04/02 11:39:19;;;;;;;2.70;1.23;;;;;;;;;;5094171;28;20043;-67
2022/04/02 11:41:46;;;;;;;2.90;1.23;;;;;;;;;;5089272;28;20040;-67
2022/04/02 11:44:14;;;;;;;3.13;1.23;;;;;;;;;;5089130;28;20040;-66
2022/04/02 11:47:06;;;;;;;3.67;1.10;;;;;;;;;;5097105;28;20104;-67
2022/04/02 11:49:33;;;;;;;2.73;1.10;;;;;;;;;;5092169;28;20044;-67
2022/04/02 11:52:06;;;;;;;4.50;1.13;;;;;;;;;;5099538;28;20089;-67
2022/04/02 11:54:38;;;;;;;3.87;1.50;;;;;;;;;;5108482;28;20051;-67
2022/04/02 11:57:08;;;;;;;4.80;1.30;;;;;;;;;;5108790;28;20146;-67
2022/04/02 11:59:35;;;;;;;5.80;1.40;;;;;;;;;;5108729;28;20842;-67
2022/04/02 12:02:02;;;;;;;3.00;1.30;;;;;;;;;;5108793;28;20520;-67
2022/04/02 12:04:28;;;;;;;5.10;1.60;;;;;;;;;;5093433;28;20045;-67
2022/04/02 12:07:03;;;;;;;4.10;1.20;;;;;;;;;;5096278;28;20126;-66
2022/04/02 12:09:29;;;;;;;4.40;1.80;;;;;;;;;;5097113;28;20047;-66
2022/04/02 12:11:55;;;;;;;3.57;1.30;;;;;;;;;;5099093;28;20048;-67
2022/04/02 12:14:38;;;;;;;4.97;2.23;;;;;;;;;;5096368;28;20055;-67
2022/04/02 12:17:11;;;;;;;4.00;1.80;;;;;;;;;;5096178;28;20408;-66
2022/04/02 12:19:41;;;;;;;4.10;1.65;;;;;;;;;;5097764;28;20387;-66
2022/04/02 12:22:18;;;;;;;5.97;1.63;;;;;;;;;;5100686;28;20509;-67
2022/04/02 12:24:48;;;;;;;3.00;1.40;;;;;;;;;;5100334;28;20413;-67
2022/04/02 12:27:17;;;;;;;3.00;1.33;;;;;;;;;;5082232;28;20055;-66
2022/04/02 12:29:47;;;;;;;3.80;1.97;;;;;;;;;;5091049;28;20079;-67
2022/04/02 12:32:14;;;;;;;3.50;1.43;;;;;;;;;;5091699;28;20040;-67
2022/04/02 12:34:41;;;;;;;3.40;1.07;;;;;;;;;;5091876;28;20469;-67
2022/04/02 12:37:08;;;;;;;3.93;1.70;;;;;;;;;;5091153;28;20062;-67
2022/04/02 12:39:34;;;;;;;2.53;1.13;;;;;;;;;;5073573;28;20079;-67
2022/04/02 12:42:00;;;;;;;3.10;1.17;;;;;;;;;;5091365;28;20052;-67
2022/04/02 12:44:26;;;;;;;3.10;1.00;;;;;;;;;;5091171;28;20055;-67
2022/04/02 12:46:52;;;;;;;4.53;1.20;;;;;;;;;;5091235;28;20062;-67
2022/04/02 12:49:31;;;;;;;3.07;1.40;;;;;;;;;;5091182;28;20424;-67
2022/04/02 12:52:16;;;;;;;7.57;3.77;;;;;;;;;;5090842;28;20422;-67
2022/04/02 12:54:44;;;;;;;8.40;2.50;;;;;;;;;;5091415;28;20040;-67
2022/04/02 12:57:11;;;;;;;3.17;1.53;;;;;;;;;;5091337;28;20418;-67
2022/04/02 12:59:42;;;;;;;2.93;1.23;;;;;;;;;;5091040;28;20135;-67
2022/04/02 13:02:09;;;;;;;2.80;1.50;;;;;;;;;;5090986;28;20653;-68
2022/04/02 13:04:39;;;;;;;2.60;1.27;;;;;;;;;;5091347;28;20044;-68
2022/04/02 13:07:11;;;;;;;3.93;1.60;;;;;;;;;;5091967;28;21012;-67
2022/04/02 13:09:38;;;;;;;2.57;1.20;;;;;;;;;;5097475;28;20043;-68
2022/04/02 13:12:07;;;;;;;3.17;1.33;;;;;;;;;;5096197;28;20089;-67
2022/04/02 13:14:33;;;;;;;2.50;1.07;;;;;;;;;;5090274;28;20044;-67
2022/04/02 13:17:09;;;;;;;5.83;1.17;;;;;;;;;;5090151;28;20118;-67
2022/04/02 13:22:29;;;;;;;1.35;0.95;;;;;;;;;;5090193;28;20052;-67
2022/04/02 13:24:58;;;;;;;3.83;1.03;;;;;;;;;;5090154;28;20109;-67
2022/04/02 13:27:28;;;;;;;2.23;1.10;;;;;;;;;;5089565;28;20624;-67
2022/04/02 13:30:06;;;;;;;3.83;1.30;;;;;;;;;;5071747;28;20075;-67
2022/04/02 13:32:44;;;;;;;3.20;1.20;;;;;;;;;;5089883;28;20044;-67
2022/04/02 13:35:19;;;;;;;3.13;1.40;;;;;;;;;;5089896;28;20676;-67
2022/04/02 13:38:08;;;;;;;2.67;0.90;;;;;;;;;;5089917;28;20084;-67
2022/04/02 13:40:37;;;;;;;2.80;1.10;;;;;;;;;;5098643;28;20046;-67
2022/04/02 13:43:06;;;;;;;2.93;0.90;;;;;;;;;;5100368;28;20108;-68
2022/04/02 13:45:37;;;;;;;3.90;0.90;;;;;;;;;;5095180;28;20072;-67
2022/04/02 13:48:03;;;;;;;1.83;0.90;;;;;;;;;;5097882;28;20873;-68
2022/04/02 13:50:30;;;;;;;3.50;0.83;;;;;;;;;;5089855;28;20067;-68
2022/04/02 13:53:06;;;;;;;1.70;0.80;;;;;;;;;;5088916;28;20048;-67
2022/04/02 13:55:34;;;;;;;3.33;0.90;;;;;;;;;;5102723;28;20516;-67
2022/04/02 13:58:07;;;;;;;3.90;0.90;;;;;;;;;;5104190;28;20119;-67
2022/04/02 14:00:33;;;;;;;;;;;;;;;;;;5088055;28;20113;-67
2022/04/02 14:03:00;;;;;;;1.20;0.63;;;;;;;;;;5087115;28;20386;-68
2022/04/02 14:05:30;;;;;;;2.37;0.80;;;;;;;;;;5087585;28;20078;-67
2022/04/02 14:08:03;;;;;;;2.87;1.00;;;;;;;;;;5087530;28;20048;-67
2022/04/02 14:10:43;;;;;;;3.60;1.10;;;;;;;;;;5087762;28;20501;-68
2022/04/02 14:13:09;;;;;;;2.87;1.10;;;;;;;;;;5089003;28;20127;-68
2022/04/02 14:15:39;;;;;;;4.67;1.67;;;;;;;;;;5088985;28;20209;-67
2022/04/02 14:18:08;;;;;;;2.60;1.40;;;;;;;;;;5070998;28;20048;-67
2022/04/02 14:20:34;;;;;;;2.23;1.20;;;;;;;;;;5089639;28;20490;-67
2022/04/02 14:23:10;;;;;;;3.30;1.20;;;;;;;;;;5105614;28;20040;-67
2022/04/02 14:25:42;;;;;;;3.40;1.57;;;;;;;;;;5109360;28;20059;-67
2022/04/02 14:28:27;;;;;;;3.23;1.30;;;;;;;;;;5093059;28;20048;-65
2022/04/02 14:30:58;;;;;;;1.60;0.90;;;;;;;;;;5102083;28;20173;-67
2022/04/02 14:33:43;;;;;;;4.47;1.30;;;;;;;;;;5102645;28;20115;-68
2022/04/02 14:36:18;;;;;;;2.27;1.03;;;;;;;;;;5099552;28;20048;-67
2022/04/02 14:38:58;;;;;;;3.03;1.03;;;;;;;;;;5096276;28;20112;-67
2022/04/02 14:41:27;;;;;;;1.87;0.90;;;;;;;;;;5099295;28;20040;-67
2022/04/02 14:44:12;;;;;;;2.50;1.00;;;;;;;;;;5089665;28;20043;-68
2022/04/02 14:47:04;;;;;;;4.17;1.20;;;;;;;;;;5106952;28;20053;-67